Time;durP1;ratioP1;P1;durP2;ratioP2;P2;SDS_P1;SDS_P2;PMS_P1;PMS_P2;Temp;Humidity;BMP_temperature;BMP_pressure;BME280_temperature;BME280_humidity;BME280_pressure;Samples;Min_cycle;Max_cycle;Signal;HPM_P1;HPM_P2
2024/03/23 00:01:03;;;;;;;7.10;3.50;;;;;;;10.75;47.90;100617.41;4946030;29;20396;-72
2024/03/23 00:03:34;;;;;;;10.45;3.85;;;;;;;10.75;48.08;100620.16;4948716;28;20047;-73
2024/03/23 00:06:05;;;;;;;8.60;4.05;;;;;;;10.73;48.00;100609.34;4946881;29;20044;-72
2024/03/23 00:08:35;;;;;;;6.95;4.07;;;;;;;10.71;47.67;100602.31;4948517;28;20423;-70
2024/03/23 00:11:06;;;;;;;7.72;4.03;;;;;;;10.71;47.88;100607.78;4946541;28;20046;-71
2024/03/23 00:13:36;;;;;;;7.57;4.07;;;;;;;10.70;47.66;100603.31;4950826;28;20134;-71
2024/03/23 00:16:07;;;;;;;8.80;5.00;;;;;;;10.68;47.66;100603.44;4949605;28;20046;-71
2024/03/23 00:18:36;;;;;;;6.75;3.50;;;;;;;10.64;46.88;100607.47;4949744;28;20050;-71
2024/03/23 00:21:07;;;;;;;5.93;2.42;;;;;;;10.60;46.53;100601.41;4946949;29;20455;-71
2024/03/23 00:23:37;;;;;;;6.28;2.20;;;;;;;10.56;46.93;100607.31;4944190;28;20628;-71
2024/03/23 00:26:08;;;;;;;4.45;1.70;;;;;;;10.51;46.40;100607.69;4953868;28;20053;-71
2024/03/23 00:28:37;;;;;;;4.75;1.70;;;;;;;10.48;46.78;100601.66;4949706;28;20098;-70
2024/03/23 00:31:09;;;;;;;5.68;2.08;;;;;;;10.43;46.41;100602.06;4946006;28;20046;-70
2024/03/23 00:33:39;;;;;;;3.58;1.83;;;;;;;10.40;46.52;100604.22;4948459;28;20058;-71
2024/03/23 00:36:09;;;;;;;6.22;1.80;;;;;;;10.35;46.36;100609.22;4952621;28;20047;-70
2024/03/23 00:38:39;;;;;;;4.30;1.80;;;;;;;10.30;46.33;100606.91;4948342;28;20518;-70
2024/03/23 00:41:09;;;;;;;4.22;1.88;;;;;;;10.27;46.29;100598.09;4947563;28;20046;-70
2024/03/23 00:43:39;;;;;;;4.53;1.90;;;;;;;10.22;46.89;100602.16;4949077;28;20069;-71
2024/03/23 00:46:10;;;;;;;5.32;1.80;;;;;;;10.18;46.76;100592.47;4935355;29;20047;-71
2024/03/23 00:48:39;;;;;;;5.80;1.90;;;;;;;10.15;46.56;100590.00;4951081;28;20086;-71
2024/03/23 00:51:10;;;;;;;7.97;2.03;;;;;;;10.13;47.14;100592.03;4943595;29;20439;-71
2024/03/23 00:53:38;;;;;;;6.05;1.90;;;;;;;10.10;46.92;100580.50;4938916;28;20466;-71
2024/03/23 00:56:05;;;;;;;6.10;1.80;;;;;;;10.07;46.97;100581.63;4950863;28;20035;-70
2024/03/23 00:58:31;;;;;;;7.00;2.30;;;;;;;10.05;46.85;100586.38;4949021;28;20478;-71
2024/03/23 01:00:58;;;;;;;4.03;2.25;;;;;;;10.02;46.81;100580.31;4943543;28;20035;-70
2024/03/23 01:03:24;;;;;;;5.60;2.03;;;;;;;10.00;46.97;100579.56;4941188;28;20039;-70
2024/03/23 01:05:50;;;;;;;6.65;2.13;;;;;;;9.98;46.91;100584.34;4945398;28;20046;-70
2024/03/23 01:08:16;;;;;;;6.93;2.50;;;;;;;9.95;47.20;100576.41;4945373;28;20043;-71
2024/03/23 01:10:55;;;;;;;6.03;2.15;;;;;;;9.96;46.95;100564.47;4951485;28;20046;-71
2024/03/23 01:13:22;;;;;;;5.57;2.05;;;;;;;9.91;47.18;100572.19;4947048;28;20039;-71
2024/03/23 01:15:49;;;;;;;4.65;1.80;;;;;;;9.91;46.72;100564.00;4933078;28;20043;-71
2024/03/23 01:18:15;;;;;;;6.38;2.22;;;;;;;9.88;46.99;100558.81;4936518;28;20050;-70
2024/03/23 01:20:42;;;;;;;6.38;1.95;;;;;;;9.87;47.49;100568.88;4948295;28;20122;-71
2024/03/23 01:23:08;;;;;;;5.03;1.92;;;;;;;9.85;47.10;100571.75;4944024;28;20035;-71
2024/03/23 01:25:35;;;;;;;4.18;1.95;;;;;;;9.84;47.17;100561.81;4927157;28;20055;-71
2024/03/23 01:28:03;;;;;;;5.90;2.10;;;;;;;9.84;47.32;100572.75;4927061;29;20043;-71
2024/03/23 01:30:30;;;;;;;6.97;2.30;;;;;;;9.83;47.60;100567.41;4944579;28;20110;-71
2024/03/23 01:32:56;;;;;;;5.93;2.03;;;;;;;9.82;47.18;100568.44;4930555;28;20070;-71
2024/03/23 01:35:23;;;;;;;5.40;2.70;;;;;;;9.80;46.93;100560.38;4935811;28;20055;-71
2024/03/23 01:37:49;;;;;;;6.93;2.30;;;;;;;9.80;47.25;100559.50;4936639;28;20078;-71
2024/03/23 01:40:17;;;;;;;7.63;2.20;;;;;;;9.79;46.80;100557.78;4950837;28;20042;-71
2024/03/23 01:42:55;;;;;;;6.80;1.98;;;;;;;9.79;47.42;100569.56;4928095;28;20119;-71
2024/03/23 01:45:24;;;;;;;3.97;2.20;;;;;;;9.75;46.76;100568.09;4942210;28;20394;-70
2024/03/23 01:47:50;;;;;;;5.90;2.10;;;;;;;9.72;46.80;100571.13;4940447;28;20098;-71
2024/03/23 01:50:17;;;;;;;5.57;1.90;;;;;;;9.70;46.57;100567.66;4950798;28;20070;-71
2024/03/23 01:52:44;;;;;;;5.53;1.70;;;;;;;9.68;46.46;100569.66;4951342;28;20422;-71
2024/03/23 01:55:12;;;;;;;4.65;1.83;;;;;;;9.65;46.71;100575.41;4946438;28;20321;-70
2024/03/23 01:57:38;;;;;;;4.28;1.80;;;;;;;9.64;46.40;100581.00;4945540;28;20043;-71
2024/03/23 02:00:06;;;;;;;5.55;1.65;;;;;;;9.62;46.54;100574.78;4946191;28;20043;-71
2024/03/23 02:02:43;;;;;;;6.53;1.60;;;;;;;9.59;46.49;100565.00;4939478;28;20038;-71
2024/03/23 02:05:10;;;;;;;3.78;1.80;;;;;;;9.57;46.38;100568.88;4948156;29;20043;-70
2024/03/23 02:07:37;;;;;;;6.18;2.13;;;;;;;9.55;46.36;100560.81;4942178;28;20051;-71
2024/03/23 02:10:05;;;;;;;3.90;1.50;;;;;;;9.52;46.33;100554.75;4946188;29;20074;-70
2024/03/23 02:12:31;;;;;;;2.85;1.60;;;;;;;9.50;46.58;100556.75;4941437;28;20446;-71
2024/03/23 02:14:58;;;;;;;4.70;1.80;;;;;;;9.47;46.60;100546.97;4942220;29;20043;-71
2024/03/23 02:17:24;;;;;;;4.32;1.92;;;;;;;9.46;46.45;100554.28;4956547;28;20038;-71
2024/03/23 02:19:53;;;;;;;4.18;1.98;;;;;;;9.46;46.61;100545.22;4940728;28;20050;-70
2024/03/23 02:22:18;;;;;;;3.35;1.50;;;;;;;9.43;46.61;100534.56;4953540;28;20106;-70
2024/03/23 02:24:47;;;;;;;4.75;1.65;;;;;;;9.42;46.49;100532.84;4933291;28;20035;-71
2024/03/23 02:27:13;;;;;;;2.78;1.30;;;;;;;9.39;46.84;100536.72;4952238;29;20055;-71
2024/03/23 02:29:40;;;;;;;3.90;1.50;;;;;;;9.39;46.96;100536.72;4952189;28;20057;-71
2024/03/23 02:32:08;;;;;;;3.35;1.40;;;;;;;9.39;46.86;100530.38;4940479;28;20054;-71
2024/03/23 02:34:35;;;;;;;5.15;1.52;;;;;;;9.37;47.19;100525.03;4936133;28;20094;-71
2024/03/23 02:37:01;;;;;;;4.53;1.65;;;;;;;9.36;47.28;100534.22;4953197;29;20514;-71
2024/03/23 02:39:28;;;;;;;3.25;1.33;;;;;;;9.36;47.27;100538.81;4948307;28;20150;-71
2024/03/23 02:41:56;;;;;;;4.32;1.70;;;;;;;9.37;47.45;100544.13;4946968;28;20085;-71
2024/03/23 02:44:23;;;;;;;3.97;1.80;;;;;;;9.35;47.13;100553.47;4952426;28;20050;-70
2024/03/23 02:46:49;;;;;;;5.15;1.85;;;;;;;9.34;47.25;100554.44;4951628;28;20043;-71
2024/03/23 02:49:16;;;;;;;3.80;1.55;;;;;;;9.32;46.75;100556.47;4935669;28;20078;-70
2024/03/23 02:51:42;;;;;;;5.07;1.98;;;;;;;9.32;46.96;100554.63;4949243;28;20039;-70
2024/03/23 02:54:09;;;;;;;4.50;1.50;;;;;;;9.31;46.84;100557.47;4949490;28;20043;-70
2024/03/23 02:56:35;;;;;;;4.38;1.58;;;;;;;9.30;47.45;100544.81;4938317;28;20057;-71
2024/03/23 02:59:03;;;;;;;3.40;1.50;;;;;;;9.30;47.27;100548.41;4942336;28;20055;-70
2024/03/23 03:01:29;;;;;;;3.38;1.38;;;;;;;9.27;47.25;100545.94;4941834;28;20030;-70
2024/03/23 03:03:56;;;;;;;4.85;1.70;;;;;;;9.26;47.19;100552.41;4930776;28;20110;-70
2024/03/23 03:06:26;;;;;;;4.03;1.40;;;;;;;9.29;47.21;100554.00;4943375;28;20043;-71
2024/03/23 03:08:53;;;;;;;4.68;1.40;;;;;;;9.26;47.23;100543.34;4951446;29;20504;-71
2024/03/23 03:11:19;;;;;;;2.95;1.27;;;;;;;9.25;46.68;100533.41;4948446;28;20165;-71
2024/03/23 03:13:46;;;;;;;3.40;1.27;;;;;;;9.24;46.91;100535.31;4950595;28;20043;-71
2024/03/23 03:16:13;;;;;;;3.08;1.40;;;;;;;9.25;46.78;100530.69;4956097;28;20055;-71
2024/03/23 03:18:41;;;;;;;4.72;1.45;;;;;;;9.22;47.09;100525.50;4952503;28;20486;-71
2024/03/23 03:21:10;;;;;;;3.47;1.20;;;;;;;9.21;46.93;100510.97;4935831;28;20093;-71
2024/03/23 03:23:37;;;;;;;3.53;1.42;;;;;;;9.20;46.96;100514.72;4945348;28;20047;-71
2024/03/23 03:26:03;;;;;;;3.08;1.45;;;;;;;9.20;46.90;100532.94;4947513;29;20471;-71
2024/03/23 03:28:32;;;;;;;4.43;1.85;;;;;;;9.18;46.72;100534.94;4936290;28;20058;-70
2024/03/23 03:30:58;;;;;;;4.65;1.77;;;;;;;9.17;46.53;100522.28;4951508;28;20046;-71
2024/03/23 03:33:27;;;;;;;3.95;1.25;;;;;;;9.17;46.89;100534.06;4933883;28;20438;-71
2024/03/23 03:35:54;;;;;;;5.30;1.30;;;;;;;9.13;46.89;100538.09;4948254;28;20051;-71
2024/03/23 03:38:21;;;;;;;5.85;1.30;;;;;;;9.13;46.71;100537.22;4936612;28;20438;-70
2024/03/23 03:40:47;;;;;;;3.75;1.17;;;;;;;9.11;46.84;100537.34;4941008;29;23188;-70
2024/03/23 03:43:14;;;;;;;4.35;1.42;;;;;;;9.10;47.02;100543.81;4945190;28;20039;-71
2024/03/23 03:45:40;;;;;;;3.08;1.40;;;;;;;9.07;46.58;100534.03;4949402;29;20123;-71
2024/03/23 03:48:08;;;;;;;5.25;1.45;;;;;;;9.06;46.69;100532.31;4946461;28;20462;-70
2024/03/23 03:50:35;;;;;;;3.58;1.38;;;;;;;9.06;47.10;100536.88;4949265;28;20031;-70
2024/03/23 03:53:02;;;;;;;3.58;1.50;;;;;;;9.04;46.83;100536.16;4931028;29;20407;-71
2024/03/23 03:55:28;;;;;;;5.03;1.50;;;;;;;9.01;46.69;100533.69;4951702;28;20097;-70
2024/03/23 03:57:55;;;;;;;4.53;1.60;;;;;;;9.01;46.73;100528.22;4954650;28;20046;-71
2024/03/23 04:00:21;;;;;;;5.60;1.58;;;;;;;8.99;47.01;100536.56;4951182;28;20058;-71
2024/03/23 04:02:48;;;;;;;4.88;1.40;;;;;;;8.97;46.88;100532.22;4944618;28;20058;-71
2024/03/23 04:05:14;;;;;;;3.88;1.40;;;;;;;8.97;46.83;100530.34;4937501;28;20042;-71
2024/03/23 04:07:43;;;;;;;3.20;1.30;;;;;;;8.97;46.86;100533.09;4965213;28;20047;-71
2024/03/23 04:10:09;;;;;;;3.25;1.17;;;;;;;8.93;46.50;100533.47;4939244;29;20035;-71
2024/03/23 04:12:36;;;;;;;3.80;1.48;;;;;;;8.92;46.86;100531.72;4934886;28;20537;-71
2024/03/23 04:15:04;;;;;;;4.55;1.52;;;;;;;8.91;46.81;100539.09;4938368;28;20059;-71
2024/03/23 04:17:33;;;;;;;4.57;1.58;;;;;;;8.90;46.65;100526.44;4949342;28;20042;-71
2024/03/23 04:20:00;;;;;;;3.65;1.25;;;;;;;8.89;46.88;100530.16;4933292;28;20094;-70
2024/03/23 04:22:27;;;;;;;3.60;1.40;;;;;;;8.86;47.02;100519.50;4953870;28;20062;-71
2024/03/23 04:24:55;;;;;;;2.95;1.35;;;;;;;8.88;46.74;100522.09;4958795;28;20051;-71
2024/03/23 04:27:23;;;;;;;3.70;1.30;;;;;;;8.84;46.92;100517.88;4946768;28;20384;-71
2024/03/23 04:29:49;;;;;;;3.95;1.50;;;;;;;8.82;47.05;100534.41;4951045;28;20039;-70
2024/03/23 04:32:16;;;;;;;4.00;1.20;;;;;;;8.81;46.94;100524.50;4949458;28;20055;-71
2024/03/23 04:34:43;;;;;;;4.88;1.30;;;;;;;8.79;46.90;100531.06;4946978;28;20043;-71
2024/03/23 04:37:10;;;;;;;4.40;1.25;;;;;;;8.78;46.61;100532.94;4948155;29;20094;-70
2024/03/23 04:39:37;;;;;;;5.88;1.30;;;;;;;8.76;46.99;100531.31;4950297;28;20051;-71
2024/03/23 04:42:06;;;;;;;5.20;1.40;;;;;;;8.76;46.91;100534.03;4942085;28;20047;-70
2024/03/23 04:44:33;;;;;;;3.20;1.30;;;;;;;8.74;47.20;100533.34;4949371;28;20157;-70
2024/03/23 04:47:01;;;;;;;5.50;1.30;;;;;;;8.73;46.86;100537.91;4951707;28;20042;-71
2024/03/23 04:49:28;;;;;;;4.53;1.45;;;;;;;8.71;46.78;100534.44;4949052;28;20054;-70
2024/03/23 04:51:56;;;;;;;4.72;1.33;;;;;;;8.69;46.82;100533.72;4942948;28;20118;-71
2024/03/23 04:54:24;;;;;;;4.55;1.30;;;;;;;8.68;46.72;100531.97;4928099;28;20051;-71
2024/03/23 04:56:50;;;;;;;7.70;1.88;;;;;;;8.65;46.54;100530.38;4932858;28;20042;-71
2024/03/23 04:59:18;;;;;;;4.03;1.45;;;;;;;8.64;46.26;100523.19;4950668;28;20407;-71
2024/03/23 05:01:44;;;;;;;5.88;1.35;;;;;;;8.60;46.30;100518.97;4933469;28;20046;-71
2024/03/23 05:04:11;;;;;;;6.50;1.70;;;;;;;8.58;46.25;100521.00;4933289;28;20110;-70
2024/03/23 05:06:37;;;;;;;5.20;1.45;;;;;;;8.57;46.61;100519.25;4943447;28;20058;-70
2024/03/23 05:09:06;;;;;;;4.03;1.63;;;;;;;8.54;46.68;100521.38;4932587;28;20278;-70
2024/03/23 05:11:32;;;;;;;5.70;1.90;;;;;;;8.52;46.14;100529.69;4941051;28;20064;-71
2024/03/23 05:14:00;;;;;;;4.90;1.63;;;;;;;8.51;46.47;100532.53;4949604;28;20047;-70
2024/03/23 05:16:28;;;;;;;5.28;1.83;;;;;;;8.51;46.23;100536.13;4935786;28;20109;-70
2024/03/23 05:18:55;;;;;;;5.38;1.95;;;;;;;8.47;46.52;100536.53;4950453;28;20061;-71
2024/03/23 05:21:21;;;;;;;5.50;2.40;;;;;;;8.45;46.68;100536.66;4934458;28;20035;-71
2024/03/23 05:23:48;;;;;;;8.68;2.10;;;;;;;8.44;46.56;100534.03;4947556;28;20050;-71
2024/03/23 05:26:14;;;;;;;4.82;2.30;;;;;;;8.41;46.45;100546.09;4943303;28;20058;-71
2024/03/23 05:28:41;;;;;;;4.57;2.10;;;;;;;8.40;46.20;100547.09;4950711;28;20046;-71
2024/03/23 05:31:08;;;;;;;5.45;1.88;;;;;;;8.38;46.33;100538.16;4947972;28;20031;-71
2024/03/23 05:33:38;;;;;;;4.78;1.75;;;;;;;8.37;46.55;100538.28;4952724;28;20355;-71
2024/03/23 05:36:05;;;;;;;7.88;2.10;;;;;;;8.35;46.43;100541.13;4953159;28;20055;-71
2024/03/23 05:38:32;;;;;;;5.28;2.22;;;;;;;8.33;46.74;100543.13;4953168;28;20417;-71
2024/03/23 05:40:59;;;;;;;4.70;2.00;;;;;;;8.33;46.84;100538.56;4953759;28;20050;-71
2024/03/23 05:43:28;;;;;;;5.05;1.90;;;;;;;8.32;46.90;100533.22;4953751;28;20046;-71
2024/03/23 05:45:54;;;;;;;6.97;2.15;;;;;;;8.32;46.90;100536.81;4937372;28;20059;-70
2024/03/23 05:48:21;;;;;;;4.18;1.70;;;;;;;8.32;47.26;100538.69;4955552;28;20065;-71
2024/03/23 05:50:49;;;;;;;4.32;1.77;;;;;;;8.33;46.98;100532.22;4956942;28;20518;-71
2024/03/23 05:53:16;;;;;;;4.32;1.90;;;;;;;8.32;47.03;100533.22;4956900;28;20070;-71
2024/03/23 05:55:43;;;;;;;4.63;2.30;;;;;;;8.29;46.80;100526.16;4957197;28;20047;-71
2024/03/23 05:58:10;;;;;;;5.60;2.10;;;;;;;8.27;46.45;100522.69;4957370;28;20042;-71
2024/03/23 06:00:36;;;;;;;4.63;2.20;;;;;;;8.27;46.76;100536.31;4957237;28;20058;-71
2024/03/23 06:03:03;;;;;;;7.03;2.08;;;;;;;8.26;46.56;100536.44;4957137;28;20043;-71
2024/03/23 06:05:29;;;;;;;4.93;2.20;;;;;;;8.24;46.86;100536.59;4940453;28;20142;-71
2024/03/23 06:07:57;;;;;;;5.50;1.95;;;;;;;8.24;46.83;100543.91;4939913;28;20094;-71
2024/03/23 06:10:23;;;;;;;5.30;2.05;;;;;;;8.21;46.70;100546.88;4957202;28;20503;-71
2024/03/23 06:12:51;;;;;;;5.50;2.20;;;;;;;8.19;46.73;100555.16;4972567;28;20041;-71
2024/03/23 06:15:18;;;;;;;5.65;1.92;;;;;;;8.17;46.97;100557.19;4956704;28;20058;-71
2024/03/23 06:17:44;;;;;;;6.35;2.20;;;;;;;8.17;46.95;100565.34;4955928;28;20051;-70
2024/03/23 06:20:11;;;;;;;4.28;2.30;;;;;;;8.16;46.83;100563.63;4938104;28;20043;-70
2024/03/23 06:22:38;;;;;;;5.57;2.25;;;;;;;8.15;46.57;100561.88;4955363;28;20080;-70
2024/03/23 06:25:06;;;;;;;5.40;2.20;;;;;;;8.15;47.03;100556.44;4955867;28;20042;-71
2024/03/23 06:27:33;;;;;;;4.75;2.20;;;;;;;8.12;46.79;100564.81;4955122;28;20054;-71
2024/03/23 06:29:59;;;;;;;6.55;2.25;;;;;;;8.11;46.87;100554.03;4955655;28;20051;-70
2024/03/23 06:32:25;;;;;;;5.70;2.80;;;;;;;8.10;46.98;100561.34;4955279;28;20053;-70
2024/03/23 06:34:51;;;;;;;5.95;2.33;;;;;;;8.09;47.11;100553.31;4939898;28;20066;-71
2024/03/23 06:37:18;;;;;;;5.43;2.50;;;;;;;8.09;47.10;100558.75;4939666;28;20418;-71
2024/03/23 06:39:46;;;;;;;7.07;2.80;;;;;;;8.10;47.13;100555.88;4934322;28;20074;-69
2024/03/23 06:42:14;;;;;;;7.50;2.65;;;;;;;8.11;47.16;100554.91;4955070;28;20050;-70
2024/03/23 06:44:40;;;;;;;6.20;2.42;;;;;;;8.11;47.23;100556.75;4955544;28;20089;-72
2024/03/23 06:47:07;;;;;;;5.55;2.50;;;;;;;8.13;47.66;100565.69;4951109;28;20426;-70
2024/03/23 06:49:33;;;;;;;8.27;2.70;;;;;;;8.15;47.38;100561.88;4949478;28;20403;-70
2024/03/23 06:52:00;;;;;;;6.90;2.53;;;;;;;8.19;47.95;100557.03;4937730;28;20133;-70
2024/03/23 06:54:26;;;;;;;7.70;2.88;;;;;;;8.23;47.60;100563.97;4927146;28;20039;-71
2024/03/23 06:56:53;;;;;;;6.50;2.72;;;;;;;8.27;48.32;100566.31;4929451;28;20063;-69
2024/03/23 06:59:20;;;;;;;6.20;2.70;;;;;;;8.35;48.40;100565.66;4950493;28;20115;-70
2024/03/23 07:01:47;;;;;;;6.65;3.08;;;;;;;8.42;49.24;100568.78;4950207;28;20050;-71
2024/03/23 07:04:13;;;;;;;7.00;2.85;;;;;;;8.52;49.51;100581.50;4927619;28;20094;-70
2024/03/23 07:06:43;;;;;;;6.53;2.90;;;;;;;8.64;50.04;100577.75;4935877;28;20127;-70
2024/03/23 07:09:09;;;;;;;5.75;2.63;;;;;;;8.79;50.80;100581.06;4949115;29;20039;-70
2024/03/23 07:11:36;;;;;;;5.72;2.78;;;;;;;8.98;51.10;100581.22;4935836;29;20058;-70
2024/03/23 07:14:02;;;;;;;4.68;2.72;;;;;;;9.19;50.75;100581.22;4944656;28;20048;-71
2024/03/23 07:16:31;;;;;;;5.72;2.72;;;;;;;9.43;50.39;100581.00;4951498;29;20044;-70
2024/03/23 07:18:57;;;;;;;7.53;2.55;;;;;;;9.64;50.39;100581.88;4929991;28;20051;-71
2024/03/23 07:21:24;;;;;;;7.93;3.58;;;;;;;9.87;50.53;100574.34;4952666;28;20510;-70
2024/03/23 07:23:50;;;;;;;5.28;2.63;;;;;;;10.10;50.13;100575.03;4947602;29;20043;-70
2024/03/23 07:26:17;;;;;;;7.45;2.92;;;;;;;10.31;50.05;100575.81;4932779;28;20066;-71
2024/03/23 07:28:44;;;;;;;6.60;2.80;;;;;;;10.52;48.94;100568.38;4945674;28;20038;-71
2024/03/23 07:31:13;;;;;;;8.75;3.17;;;;;;;10.73;48.87;100573.75;4948080;28;20073;-71
2024/03/23 07:33:44;;;;;;;8.02;2.90;;;;;;;10.93;47.47;100569.16;4930081;28;20483;-71
2024/03/23 07:36:11;;;;;;;4.95;2.47;;;;;;;11.07;48.03;100573.34;4949779;28;20406;-71
2024/03/23 07:38:37;;;;;;;5.57;2.70;;;;;;;11.24;47.61;100575.34;4948301;28;20501;-71
2024/03/23 07:41:05;;;;;;;5.15;2.88;;;;;;;11.40;47.38;100577.50;4951231;29;20047;-71
2024/03/23 07:43:31;;;;;;;7.88;2.78;;;;;;;11.52;47.65;100577.19;4941931;28;20058;-71
2024/03/23 07:45:58;;;;;;;6.72;2.38;;;;;;;11.65;47.40;100582.38;4940052;29;20047;-71
2024/03/23 07:48:25;;;;;;;6.40;2.80;;;;;;;11.77;47.02;100581.22;4945420;28;20051;-71
2024/03/23 07:51:05;;;;;;;5.72;2.70;;;;;;;11.89;44.34;100576.38;4953238;28;20039;-71
2024/03/23 07:53:31;;;;;;;4.88;2.13;;;;;;;11.96;46.40;100583.91;4960761;28;20470;-71
2024/03/23 07:56:10;;;;;;;6.03;2.50;;;;;;;12.02;46.51;100576.94;4994744;23;20097;-82
2024/03/23 07:58:45;;;;;;;5.97;3.35;;;;;;;12.09;45.04;100578.06;4921809;28;20518;-81
2024/03/23 08:01:18;;;;;;;7.10;2.90;;;;;;;12.16;44.86;100578.31;4948021;29;20051;-82
2024/03/23 08:04:28;;;;;;;5.38;2.63;;;;;;;12.14;43.47;100575.72;4952663;28;20042;-84
2024/03/23 08:07:31;;;;;;;6.70;2.78;;;;;;;12.18;44.45;100566.19;4859152;29;20067;-84
2024/03/23 08:10:36;;;;;;;6.38;3.28;;;;;;;12.23;43.30;100576.69;4837778;29;20132;-86
2024/03/23 08:13:04;;;;;;;6.90;3.00;;;;;;;12.21;44.37;100578.72;4923111;28;20112;-84
2024/03/23 08:15:51;;;;;;;7.30;2.97;;;;;;;12.25;44.21;100574.66;4938755;28;20114;-84
2024/03/23 08:18:30;;;;;;;6.38;2.80;;;;;;;12.24;43.40;100576.53;4922936;28;20043;-84
2024/03/23 08:21:28;;;;;;;5.28;2.83;;;;;;;12.29;42.77;100573.34;4934469;29;20051;-84
2024/03/23 08:24:32;;;;;;;6.82;2.45;;;;;;;12.24;41.96;100573.78;4950556;28;20046;-85
2024/03/23 08:27:02;;;;;;;5.00;2.50;;;;;;;12.26;42.29;100580.00;4913120;29;20047;-85
2024/03/23 08:29:51;;;;;;;6.55;2.47;;;;;;;12.23;42.10;100577.53;4949211;28;20586;-84
2024/03/23 08:32:36;;;;;;;4.55;2.30;;;;;;;12.17;41.45;100574.56;4961986;28;20049;-85
2024/03/23 08:35:06;;;;;;;6.35;2.38;;;;;;;12.14;42.05;100581.19;4934025;28;20666;-85
2024/03/23 08:37:58;;;;;;;6.55;2.63;;;;;;;12.08;41.19;100574.44;4916937;28;20046;-85
2024/03/23 08:41:02;;;;;;;4.80;2.60;;;;;;;11.99;40.70;100569.00;4940807;28;20558;-83
2024/03/23 08:43:39;;;;;;;4.68;2.10;;;;;;;11.92;41.27;100570.63;4950495;28;20050;-84
2024/03/23 08:53:48;;;;;;;5.85;1.92;;;;;;;11.64;40.62;100573.28;4924414;28;20462;-85
2024/03/23 08:57:18;;;;;;;5.93;2.10;;;;;;;11.53;40.48;100570.72;4857024;29;20049;-85
2024/03/23 09:00:22;;;;;;;3.50;1.73;;;;;;;11.47;40.43;100579.50;4847393;29;20123;-85
2024/03/23 09:03:32;;;;;;;4.63;2.17;;;;;;;11.39;40.17;100584.00;4818064;29;20246;-85
2024/03/23 09:06:20;;;;;;;4.30;1.73;;;;;;;11.33;40.36;100588.19;4931423;28;20045;-85
2024/03/23 09:08:47;;;;;;;5.53;1.65;;;;;;;11.24;40.84;100584.44;4950017;28;20519;-84
2024/03/23 09:11:20;;;;;;;5.07;1.80;;;;;;;11.20;39.97;100577.53;4950301;28;20458;-84
2024/03/23 09:23:08;;;;;;;4.43;1.90;;;;;;;10.87;40.50;100575.22;4843260;29;20085;-84
2024/03/23 09:29:09;;;;;;;5.93;2.13;;;;;;;10.88;40.46;100569.63;4870557;29;20052;-86
2024/03/23 09:31:52;;;;;;;4.07;2.17;;;;;;;10.85;40.33;100572.63;4892042;28;20088;-84
2024/03/23 09:34:35;;;;;;;6.40;2.70;;;;;;;10.87;40.18;100577.97;4947851;28;20059;-85
2024/03/23 09:37:20;;;;;;;4.97;2.42;;;;;;;10.85;39.95;100563.56;4938417;28;20107;-84
2024/03/23 09:40:29;;;;;;;;;;;;;;;;;;;;;
2024/03/23 09:43:32;;;;;;;5.45;2.13;;;;;;;10.86;41.16;100573.50;4931251;23;20045;-72
2024/03/23 09:45:58;;;;;;;4.40;2.20;;;;;;;10.91;40.76;100569.31;4940444;29;20043;-72
2024/03/23 09:48:26;;;;;;;6.10;2.45;;;;;;;10.92;40.67;100559.22;4933103;28;20039;-71
2024/03/23 09:50:52;;;;;;;4.95;2.25;;;;;;;10.92;40.58;100568.31;4953887;28;20046;-72
2024/03/23 09:53:19;;;;;;;6.03;2.65;;;;;;;10.92;40.47;100568.31;4947291;28;20058;-71
2024/03/23 09:55:46;;;;;;;4.55;2.40;;;;;;;10.96;40.08;100561.56;4959152;28;20046;-72
2024/03/23 09:58:14;;;;;;;6.18;1.90;;;;;;;10.97;40.61;100560.53;4952995;28;20039;-71
2024/03/23 10:00:40;;;;;;;5.95;2.65;;;;;;;10.97;40.70;100555.06;4938513;28;20043;-72
2024/03/23 10:03:08;;;;;;;4.50;2.03;;;;;;;10.99;40.78;100561.25;4945458;28;20097;-71
2024/03/23 10:05:34;;;;;;;5.40;2.30;;;;;;;11.01;40.13;100552.03;4943625;28;20047;-72
2024/03/23 10:08:17;;;;;;;4.40;2.10;;;;;;;11.04;39.72;100554.47;4949700;28;20058;-72
2024/03/23 10:10:46;;;;;;;3.45;1.83;;;;;;;11.04;39.47;100551.75;4953568;28;20039;-72
2024/03/23 10:13:25;;;;;;;4.45;1.83;;;;;;;11.07;38.34;100551.44;4944015;28;20035;-74
2024/03/23 10:15:56;;;;;;;4.97;1.80;;;;;;;11.08;38.36;100556.78;4936148;28;20047;-72
2024/03/23 10:18:24;;;;;;;5.53;2.35;;;;;;;11.07;39.09;100557.78;4950707;28;20039;-71
2024/03/23 10:21:08;;;;;;;3.70;1.73;;;;;;;11.08;37.52;100553.16;4952417;28;20050;-72
2024/03/23 10:23:36;;;;;;;3.42;1.60;;;;;;;11.07;38.67;100551.44;4953911;28;20034;-72
2024/03/23 10:26:18;;;;;;;3.17;1.30;;;;;;;11.08;37.56;100545.81;4941953;28;20505;-73
2024/03/23 10:28:56;;;;;;;3.35;1.55;;;;;;;11.07;37.33;100544.09;4946308;28;20305;-72
2024/03/23 10:31:22;;;;;;;3.38;1.67;;;;;;;11.07;38.32;100565.13;4940062;28;20038;-72
2024/03/23 10:33:50;;;;;;;2.28;1.20;;;;;;;11.06;37.92;100567.00;4951394;28;20518;-72
2024/03/23 10:36:17;;;;;;;3.15;1.10;;;;;;;11.06;37.95;100585.34;4959104;28;20043;-72
2024/03/23 10:38:45;;;;;;;3.25;1.05;;;;;;;11.03;37.79;100597.44;4951598;28;20054;-72
2024/03/23 10:41:12;;;;;;;2.97;1.45;;;;;;;10.97;38.16;100600.75;4957790;28;20042;-72
2024/03/23 10:43:40;;;;;;;3.45;1.08;;;;;;;10.88;37.93;100609.81;4954114;28;20399;-72
2024/03/23 10:46:06;;;;;;;1.67;0.75;;;;;;;10.79;37.87;100619.75;4936550;28;20066;-72
2024/03/23 10:48:34;;;;;;;2.45;1.08;;;;;;;10.70;38.08;100622.47;4951620;28;20034;-72
2024/03/23 10:51:00;;;;;;;3.17;1.17;;;;;;;10.59;38.13;100624.31;4952298;28;20548;-72
2024/03/23 10:53:28;;;;;;;2.92;1.20;;;;;;;10.49;38.46;100617.91;4951817;28;20047;-72
2024/03/23 10:55:55;;;;;;;3.00;1.13;;;;;;;10.39;38.01;100632.56;4938151;28;20343;-72
2024/03/23 10:58:27;;;;;;;3.13;1.23;;;;;;;10.30;37.95;100644.34;4953896;28;20045;-72
2024/03/23 11:00:53;;;;;;;2.55;1.10;;;;;;;10.15;38.38;100641.13;4974223;28;20407;-75
2024/03/23 11:03:34;;;;;;;2.67;1.45;;;;;;;10.06;38.07;100647.41;4953553;28;20034;-74
2024/03/23 11:06:01;;;;;;;2.60;1.20;;;;;;;9.92;38.69;100637.66;4950564;28;20459;-73
2024/03/23 11:08:32;;;;;;;2.35;1.10;;;;;;;9.83;39.54;100628.41;4936150;28;20047;-72
2024/03/23 11:11:16;;;;;;;2.97;1.30;;;;;;;9.72;39.17;100625.78;4954773;28;20047;-71
2024/03/23 11:13:45;;;;;;;1.85;1.10;;;;;;;9.64;39.58;100620.13;4952039;28;20039;-72
2024/03/23 11:16:15;;;;;;;2.33;1.10;;;;;;;9.59;40.17;100616.91;4958448;28;20058;-72
2024/03/23 11:18:43;;;;;;;3.25;1.20;;;;;;;9.52;39.67;100623.91;4952310;28;20034;-72
2024/03/23 11:21:09;;;;;;;1.80;0.98;;;;;;;9.49;39.85;100616.00;4956294;28;20050;-71
2024/03/23 11:23:36;;;;;;;2.55;1.15;;;;;;;9.45;39.61;100617.25;4952810;28;20137;-71
2024/03/23 11:26:06;;;;;;;3.35;1.25;;;;;;;9.42;40.23;100612.03;4955290;28;20089;-73
2024/03/23 11:28:33;;;;;;;1.63;0.90;;;;;;;9.38;40.07;100596.91;4951352;28;20561;-73
2024/03/23 11:31:01;;;;;;;2.08;1.08;;;;;;;9.36;40.61;100599.75;4954208;28;20043;-71
2024/03/23 11:33:28;;;;;;;1.95;1.00;;;;;;;9.33;40.48;100594.56;4952107;28;20279;-72
2024/03/23 11:35:54;;;;;;;1.98;0.95;;;;;;;9.33;40.70;100593.72;4959238;28;20038;-71
2024/03/23 11:38:21;;;;;;;2.50;0.90;;;;;;;9.34;41.02;100595.41;4955589;28;20521;-71
2024/03/23 11:40:49;;;;;;;1.27;0.90;;;;;;;9.37;41.35;100595.16;4954422;28;20114;-71
2024/03/23 11:43:18;;;;;;;3.08;1.10;;;;;;;9.37;41.47;100582.38;4962618;28;20031;-71
2024/03/23 11:45:46;;;;;;;2.42;1.00;;;;;;;9.42;41.79;100588.31;4938574;28;20521;-71
2024/03/23 11:48:17;;;;;;;1.77;1.10;;;;;;;9.48;41.76;100575.16;4961214;28;20046;-72
2024/03/23 11:50:45;;;;;;;2.58;1.20;;;;;;;9.52;41.68;100574.75;4958326;28;20043;-71
2024/03/23 11:53:15;;;;;;;3.10;1.25;;;;;;;9.59;41.90;100578.66;4941024;28;20047;-72
2024/03/23 11:55:48;;;;;;;2.50;1.30;;;;;;;9.69;41.41;100592.38;4942793;28;20493;-72
2024/03/23 11:58:17;;;;;;;2.95;1.10;;;;;;;9.72;42.05;100617.59;4964210;28;20045;-70
2024/03/23 12:00:50;;;;;;;3.67;1.08;;;;;;;9.81;41.38;100613.19;4963192;28;20051;-70
2024/03/23 12:03:21;;;;;;;1.23;0.70;;;;;;;9.80;41.04;100604.09;4954345;28;20035;-70
2024/03/23 12:05:50;;;;;;;0.45;0.40;;;;;;;9.83;41.04;100602.94;4959551;28;20125;-70